Terminal Aerodrome Forecast
Issued by NWS

Home | Current Version | Previous Version | Text Only | Print | Product List | Glossary On
Versions: 1 2 3 4 5 6 7 8 9 10 11 12 13 14 15 16 17 18 19 20 21 22 23 24 25 26 27 28 29 30 31 32 33 34 35 36 37 38 39 40 41 42 43 44 45 46
000
FTUS41 KRNK 192335
TAFBCB
TAF
KBCB 192335Z 2000/2024 10004KT 6SM BR SCT007 OVC015
     FM200500 00000KT 3SM BR BKN007
     FM200900 00000KT 1/4SM FG OVC001
     FM201300 VRB03KT 5SM BR BKN007
     FM201500 16003KT P6SM SCT035=

USA.gov is the U.S. government's official web portal to all federal, state and local government web resources and services.